Time;durP1;ratioP1;P1;durP2;ratioP2;P2;SDS_P1;SDS_P2;PMS_P1;PMS_P2;Temp;Humidity;BMP_temperature;BMP_pressure;BME280_temperature;BME280_humidity;BME280_pressure;Samples;Min_cycle;Max_cycle;Signal;HPM_P1;HPM_P2
2022/08/02 00:00:49;;;;;;;6.68;3.00;;;;;;;;;;5107473;27;20115;-62
2022/08/02 00:03:15;;;;;;;14.50;3.33;;;;;;;;;;5121144;27;20111;-62
2022/08/02 00:05:41;;;;;;;9.30;2.83;;;;;;;;;;5124592;27;20043;-62
2022/08/02 00:08:07;;;;;;;13.73;3.80;;;;;;;;;;5124821;27;20126;-62
2022/08/02 00:10:34;;;;;;;13.70;4.07;;;;;;;;;;5123641;27;20035;-62
2022/08/02 00:13:00;;;;;;;9.80;3.22;;;;;;;;;;5124539;27;20506;-62
2022/08/02 00:15:26;;;;;;;12.63;2.95;;;;;;;;;;5108793;27;20058;-62
2022/08/02 00:17:52;;;;;;;15.70;3.55;;;;;;;;;;5107981;27;20046;-62
2022/08/02 00:20:18;;;;;;;11.13;2.92;;;;;;;;;;5103267;27;20376;-62
2022/08/02 00:22:45;;;;;;;13.95;4.00;;;;;;;;;;5130268;27;20043;-62
2022/08/02 00:25:11;;;;;;;8.85;2.50;;;;;;;;;;5127801;27;20050;-62
2022/08/02 00:27:37;;;;;;;11.30;2.78;;;;;;;;;;5122669;27;20179;-62
2022/08/02 00:30:04;;;;;;;12.45;3.13;;;;;;;;;;5123568;27;20042;-62
2022/08/02 00:32:30;;;;;;;9.77;2.90;;;;;;;;;;5119941;27;20038;-62
2022/08/02 00:34:56;;;;;;;13.68;3.67;;;;;;;;;;5124340;27;20237;-62
2022/08/02 00:37:22;;;;;;;8.30;2.55;;;;;;;;;;5119747;27;20050;-62
2022/08/02 00:39:48;;;;;;;12.65;2.88;;;;;;;;;;5125920;27;20184;-62
2022/08/02 00:42:14;;;;;;;10.80;2.92;;;;;;;;;;5100683;27;20054;-62
2022/08/02 00:44:41;;;;;;;20.00;3.60;;;;;;;;;;5119059;27;20063;-62
2022/08/02 00:47:07;;;;;;;7.93;2.88;;;;;;;;;;5117332;27;20035;-62
2022/08/02 00:49:33;;;;;;;18.85;3.65;;;;;;;;;;5117663;27;21382;-62
2022/08/02 00:52:00;;;;;;;12.02;3.17;;;;;;;;;;5116669;27;20119;-62
2022/08/02 00:54:26;;;;;;;10.73;3.20;;;;;;;;;;5118390;27;20035;-62
2022/08/02 00:56:52;;;;;;;16.52;4.05;;;;;;;;;;5125598;27;20038;-62
2022/08/02 00:59:18;;;;;;;11.77;3.25;;;;;;;;;;5126399;27;20447;-62
2022/08/02 01:01:45;;;;;;;11.50;3.22;;;;;;;;;;5105506;27;20046;-62
2022/08/02 01:04:12;;;;;;;11.98;3.47;;;;;;;;;;5125784;27;20035;-62
2022/08/02 01:06:40;;;;;;;11.73;3.80;;;;;;;;;;5126372;27;20043;-62
2022/08/02 01:09:06;;;;;;;14.63;3.47;;;;;;;;;;5122504;27;20047;-62
2022/08/02 01:11:33;;;;;;;13.43;3.72;;;;;;;;;;5123082;27;20179;-62
2022/08/02 01:14:05;;;;;;;14.27;3.78;;;;;;;;;;5103100;27;20054;-62
2022/08/02 01:16:33;;;;;;;15.45;4.57;;;;;;;;;;5125200;27;20472;-62
2022/08/02 01:19:01;;;;;;;12.93;4.28;;;;;;;;;;5103620;27;20479;-62
2022/08/02 01:21:40;;;;;;;11.98;3.55;;;;;;;;;;5123934;27;20406;-62
2022/08/02 01:24:18;;;;;;;11.73;3.63;;;;;;;;;;5122926;27;20058;-62
2022/08/02 01:26:54;;;;;;;11.43;2.97;;;;;;;;;;5121471;27;20135;-62
2022/08/02 01:29:28;;;;;;;15.77;3.53;;;;;;;;;;5109633;27;20485;-62
2022/08/02 01:32:17;;;;;;;12.77;3.92;;;;;;;;;;5132129;27;20047;-62
2022/08/02 01:34:48;;;;;;;13.10;3.42;;;;;;;;;;5127894;27;20050;-62
2022/08/02 01:37:18;;;;;;;12.07;3.05;;;;;;;;;;5106508;27;20050;-62
2022/08/02 01:39:46;;;;;;;14.98;3.75;;;;;;;;;;5130518;27;20043;-62
2022/08/02 01:42:13;;;;;;;12.43;3.60;;;;;;;;;;5130565;27;20453;-62
2022/08/02 01:44:40;;;;;;;13.95;3.88;;;;;;;;;;5133804;27;20035;-62
2022/08/02 01:47:10;;;;;;;12.82;3.13;;;;;;;;;;5125199;27;20386;-62
2022/08/02 01:49:39;;;;;;;14.32;3.58;;;;;;;;;;5116756;27;20055;-62
2022/08/02 01:52:20;;;;;;;13.40;4.55;;;;;;;;;;5126336;27;20050;-62
2022/08/02 01:54:50;;;;;;;15.10;5.15;;;;;;;;;;5125734;27;20071;-62
2022/08/02 01:57:17;;;;;;;13.90;3.28;;;;;;;;;;5123494;27;20558;-62
2022/08/02 01:59:45;;;;;;;14.95;3.25;;;;;;;;;;5124797;27;20111;-62
2022/08/02 02:02:11;;;;;;;14.13;3.55;;;;;;;;;;5123986;27;20047;-62
2022/08/02 02:04:39;;;;;;;12.23;3.00;;;;;;;;;;5121406;27;20126;-62
2022/08/02 02:07:05;;;;;;;16.73;4.40;;;;;;;;;;5122901;27;20043;-62
2022/08/02 02:09:35;;;;;;;10.65;3.45;;;;;;;;;;5106337;27;20414;-62
2022/08/02 02:12:02;;;;;;;13.25;3.25;;;;;;;;;;5121999;27;20130;-62
2022/08/02 02:14:29;;;;;;;9.63;3.70;;;;;;;;;;5121008;27;20043;-62
2022/08/02 02:16:57;;;;;;;13.45;4.63;;;;;;;;;;5125660;27;20062;-62
2022/08/02 02:19:24;;;;;;;15.20;3.80;;;;;;;;;;5127481;27;20398;-62
2022/08/02 02:21:50;;;;;;;12.35;3.60;;;;;;;;;;5129532;27;20152;-62
2022/08/02 02:24:16;;;;;;;8.57;3.33;;;;;;;;;;5124321;27;20039;-62
2022/08/02 02:26:43;;;;;;;12.85;3.55;;;;;;;;;;5119355;27;20175;-62
2022/08/02 02:29:10;;;;;;;13.45;3.50;;;;;;;;;;5109619;27;20138;-62
2022/08/02 02:31:38;;;;;;;14.82;3.63;;;;;;;;;;5128659;27;20110;-63
2022/08/02 02:34:10;;;;;;;13.65;3.50;;;;;;;;;;5128296;27;20035;-63
2022/08/02 02:36:36;;;;;;;16.05;3.80;;;;;;;;;;5124006;27;20043;-63
2022/08/02 02:39:05;;;;;;;13.30;3.10;;;;;;;;;;5127145;27;20039;-63
2022/08/02 02:41:31;;;;;;;10.45;2.78;;;;;;;;;;5128510;27;20054;-62
2022/08/02 02:43:59;;;;;;;9.07;2.97;;;;;;;;;;5127130;27;20043;-62
2022/08/02 02:46:27;;;;;;;10.73;3.15;;;;;;;;;;5124740;27;20479;-62
2022/08/02 02:48:53;;;;;;;14.43;3.30;;;;;;;;;;5104805;27;20118;-62
2022/08/02 02:51:21;;;;;;;13.18;2.95;;;;;;;;;;5125542;27;20054;-62
2022/08/02 02:53:49;;;;;;;14.45;3.92;;;;;;;;;;5123778;27;20047;-62
2022/08/02 02:56:16;;;;;;;12.57;4.65;;;;;;;;;;5120056;27;20043;-62
2022/08/02 02:58:43;;;;;;;10.35;3.58;;;;;;;;;;5123725;27;20047;-62
2022/08/02 03:01:29;;;;;;;10.77;3.40;;;;;;;;;;5106075;27;20498;-62
2022/08/02 03:03:56;;;;;;;15.32;3.97;;;;;;;;;;5124508;27;20117;-62
2022/08/02 03:06:22;;;;;;;14.48;3.80;;;;;;;;;;5107365;27;20406;-62
2022/08/02 03:08:48;;;;;;;11.25;4.50;;;;;;;;;;5120284;27;20039;-62
2022/08/02 03:11:15;;;;;;;11.85;3.60;;;;;;;;;;5119468;27;20127;-62
2022/08/02 03:13:41;;;;;;;14.25;3.58;;;;;;;;;;5124230;27;20039;-62
2022/08/02 03:16:08;;;;;;;12.55;3.33;;;;;;;;;;5124367;27;20047;-63
2022/08/02 03:18:35;;;;;;;13.88;3.72;;;;;;;;;;5125869;27;20122;-62
2022/08/02 03:21:03;;;;;;;16.45;4.03;;;;;;;;;;5123458;27;20043;-63
2022/08/02 03:23:30;;;;;;;9.52;3.30;;;;;;;;;;5135997;27;20213;-62
2022/08/02 03:25:56;;;;;;;11.98;3.17;;;;;;;;;;5116154;27;20048;-62
2022/08/02 03:28:23;;;;;;;16.63;4.32;;;;;;;;;;5121243;27;20096;-62
2022/08/02 03:30:49;;;;;;;11.40;3.55;;;;;;;;;;5108184;27;20572;-62
2022/08/02 03:33:15;;;;;;;13.23;3.50;;;;;;;;;;5126994;27;20043;-62
2022/08/02 03:35:42;;;;;;;8.20;3.85;;;;;;;;;;5130790;27;20055;-62
2022/08/02 03:38:09;;;;;;;13.70;3.92;;;;;;;;;;5129619;27;20039;-63
2022/08/02 03:40:36;;;;;;;13.95;3.75;;;;;;;;;;5121263;27;20517;-62
2022/08/02 03:43:02;;;;;;;16.85;4.03;;;;;;;;;;5105384;27;20058;-62
2022/08/02 03:45:30;;;;;;;12.32;3.58;;;;;;;;;;5127391;27;20043;-62
2022/08/02 03:47:56;;;;;;;12.25;4.32;;;;;;;;;;5112841;27;20482;-62
2022/08/02 03:50:22;;;;;;;8.52;3.75;;;;;;;;;;5108678;27;20058;-62
2022/08/02 03:52:49;;;;;;;14.40;4.30;;;;;;;;;;5122781;27;20086;-62
2022/08/02 03:55:15;;;;;;;11.05;3.92;;;;;;;;;;5107218;27;20035;-62
2022/08/02 03:57:41;;;;;;;15.93;4.68;;;;;;;;;;5127085;27;20186;-62
2022/08/02 04:00:10;;;;;;;14.05;4.85;;;;;;;;;;5125557;27;20035;-63
2022/08/02 04:02:36;;;;;;;13.38;4.57;;;;;;;;;;5125499;27;20070;-63
2022/08/02 04:05:02;;;;;;;11.07;4.65;;;;;;;;;;5130411;27;20050;-62
2022/08/02 04:07:29;;;;;;;11.57;4.03;;;;;;;;;;5125205;27;20058;-62
2022/08/02 04:09:55;;;;;;;11.90;3.90;;;;;;;;;;5128015;27;20043;-62
2022/08/02 04:12:21;;;;;;;15.52;4.78;;;;;;;;;;5122012;27;20051;-62
2022/08/02 04:14:47;;;;;;;14.43;4.95;;;;;;;;;;5122785;27;20649;-62
2022/08/02 04:17:14;;;;;;;14.30;5.22;;;;;;;;;;5124356;27;20054;-62
2022/08/02 04:19:45;;;;;;;14.30;4.45;;;;;;;;;;5124730;27;20047;-62
2022/08/02 04:22:23;;;;;;;13.50;5.18;;;;;;;;;;5119113;27;20440;-62
2022/08/02 04:24:50;;;;;;;16.63;6.00;;;;;;;;;;5120370;27;20401;-62
2022/08/02 04:27:17;;;;;;;16.05;4.82;;;;;;;;;;5123856;27;20106;-63
2022/08/02 04:29:43;;;;;;;30.67;5.78;;;;;;;;;;5124767;27;20050;-62
2022/08/02 04:32:10;;;;;;;16.77;4.82;;;;;;;;;;5102927;27;20047;-62
2022/08/02 04:34:36;;;;;;;16.95;5.03;;;;;;;;;;5120110;27;20126;-62
2022/08/02 04:37:02;;;;;;;20.40;5.13;;;;;;;;;;5120197;27;20043;-62
2022/08/02 04:39:28;;;;;;;10.30;5.18;;;;;;;;;;5120875;27;20403;-62
2022/08/02 04:41:54;;;;;;;15.80;5.78;;;;;;;;;;5122694;27;20410;-63
2022/08/02 04:44:21;;;;;;;10.45;4.60;;;;;;;;;;5120996;27;20143;-62
2022/08/02 04:46:47;;;;;;;17.65;5.82;;;;;;;;;;5102902;27;20139;-63
2022/08/02 04:49:13;;;;;;;12.98;4.70;;;;;;;;;;5098496;27;20475;-63
2022/08/02 04:51:40;;;;;;;13.07;5.72;;;;;;;;;;5117758;27;20171;-62
2022/08/02 04:54:07;;;;;;;12.48;4.22;;;;;;;;;;5118995;27;20042;-63
2022/08/02 04:56:34;;;;;;;13.93;5.47;;;;;;;;;;5127689;27;20043;-63
2022/08/02 04:59:01;;;;;;;13.07;4.75;;;;;;;;;;5124069;27;20046;-62
2022/08/02 05:01:27;;;;;;;13.23;4.25;;;;;;;;;;5122088;27;20631;-63
2022/08/02 05:03:53;;;;;;;11.75;4.28;;;;;;;;;;5128171;27;20050;-62
2022/08/02 05:06:19;;;;;;;14.98;5.15;;;;;;;;;;5122378;27;20798;-62
2022/08/02 05:08:47;;;;;;;18.08;5.70;;;;;;;;;;5122623;27;20057;-63
2022/08/02 05:11:13;;;;;;;12.30;4.43;;;;;;;;;;5127363;27;20035;-63
2022/08/02 05:13:41;;;;;;;12.00;5.03;;;;;;;;;;5123727;27;20071;-62
2022/08/02 05:16:07;;;;;;;11.20;4.10;;;;;;;;;;5128096;27;20229;-62
2022/08/02 05:18:34;;;;;;;13.30;5.05;;;;;;;;;;5128643;27;20075;-63
2022/08/02 05:21:00;;;;;;;11.65;5.00;;;;;;;;;;5124334;27;20062;-63
2022/08/02 05:23:26;;;;;;;17.90;4.25;;;;;;;;;;5128970;27;20104;-63
2022/08/02 05:25:52;;;;;;;18.45;5.45;;;;;;;;;;5129148;27;20042;-63
2022/08/02 05:28:18;;;;;;;14.75;4.63;;;;;;;;;;5131362;27;20417;-63
2022/08/02 05:30:44;;;;;;;14.07;4.70;;;;;;;;;;5109560;27;20039;-63
2022/08/02 05:33:10;;;;;;;7.57;3.85;;;;;;;;;;5129332;27;20039;-62
2022/08/02 05:35:37;;;;;;;10.50;4.30;;;;;;;;;;5113311;27;20043;-62
2022/08/02 05:38:03;;;;;;;13.32;4.43;;;;;;;;;;5111639;27;20043;-62
2022/08/02 05:40:29;;;;;;;14.05;5.20;;;;;;;;;;5115280;27;20035;-62
2022/08/02 05:42:56;;;;;;;13.32;4.07;;;;;;;;;;5135507;27;20482;-72
2022/08/02 05:45:23;;;;;;;15.02;4.95;;;;;;;;;;5113207;27;20498;-63
2022/08/02 05:47:49;;;;;;;10.45;4.25;;;;;;;;;;5130548;27;20731;-62
2022/08/02 05:50:16;;;;;;;17.15;5.35;;;;;;;;;;5127409;27;20112;-63
2022/08/02 05:52:48;;;;;;;14.55;4.53;;;;;;;;;;5128505;27;20088;-62
2022/08/02 05:55:17;;;;;;;15.15;4.53;;;;;;;;;;5133879;27;20042;-63
2022/08/02 05:58:02;;;;;;;12.32;4.47;;;;;;;;;;5135322;27;20039;-66
2022/08/02 06:00:30;;;;;;;13.20;5.13;;;;;;;;;;5130047;27;20058;-62
2022/08/02 06:03:15;;;;;;;12.25;4.05;;;;;;;;;;5138865;27;20040;-63
2022/08/02 06:05:44;;;;;;;13.15;3.92;;;;;;;;;;5115239;27;20377;-62
2022/08/02 06:08:13;;;;;;;11.35;4.75;;;;;;;;;;5137258;27;20049;-62
2022/08/02 06:10:39;;;;;;;9.57;4.10;;;;;;;;;;5130379;27;20035;-62
2022/08/02 06:13:08;;;;;;;9.73;3.72;;;;;;;;;;5136969;27;20508;-63
2022/08/02 06:15:35;;;;;;;11.40;3.67;;;;;;;;;;5133368;27;20039;-63
2022/08/02 06:18:02;;;;;;;18.65;4.35;;;;;;;;;;5125580;27;20063;-63
2022/08/02 06:20:34;;;;;;;11.48;3.85;;;;;;;;;;5130111;27;20397;-63
2022/08/02 06:23:01;;;;;;;12.38;4.18;;;;;;;;;;5129876;27;20066;-63
2022/08/02 06:25:28;;;;;;;11.25;3.80;;;;;;;;;;5128168;27;20041;-63
2022/08/02 06:27:55;;;;;;;8.98;3.53;;;;;;;;;;5126432;27;20530;-63
2022/08/02 06:30:21;;;;;;;15.32;3.92;;;;;;;;;;5129414;27;20035;-63
2022/08/02 06:32:50;;;;;;;8.90;3.30;;;;;;;;;;5110827;27;20050;-63
2022/08/02 06:35:16;;;;;;;10.52;3.70;;;;;;;;;;5131901;27;20498;-63
2022/08/02 06:37:46;;;;;;;10.73;3.20;;;;;;;;;;5129473;27;20039;-63
2022/08/02 06:40:18;;;;;;;14.52;3.70;;;;;;;;;;5130296;27;20047;-63
2022/08/02 06:42:51;;;;;;;12.70;3.38;;;;;;;;;;5129812;27;20050;-63
2022/08/02 06:45:18;;;;;;;9.95;3.65;;;;;;;;;;5142159;27;20039;-63
2022/08/02 06:47:44;;;;;;;9.20;2.97;;;;;;;;;;5126563;27;20058;-63
2022/08/02 06:50:11;;;;;;;9.82;3.40;;;;;;;;;;5135940;27;20035;-63
2022/08/02 06:52:37;;;;;;;14.90;3.33;;;;;;;;;;5142430;27;20054;-63
2022/08/02 06:55:04;;;;;;;7.20;2.60;;;;;;;;;;5122318;27;20383;-63
2022/08/02 06:57:31;;;;;;;16.35;3.60;;;;;;;;;;5130217;27;20599;-63
2022/08/02 07:00:01;;;;;;;10.98;2.83;;;;;;;;;;5132148;27;20127;-63
2022/08/02 07:02:28;;;;;;;8.15;2.88;;;;;;;;;;5115165;27;20043;-63
2022/08/02 07:04:54;;;;;;;7.80;2.60;;;;;;;;;;5116418;27;20051;-63
2022/08/02 07:07:20;;;;;;;12.93;3.58;;;;;;;;;;5129793;27;20062;-63
2022/08/02 07:09:47;;;;;;;9.02;2.42;;;;;;;;;;5094224;27;20054;-63
2022/08/02 07:12:13;;;;;;;9.52;2.67;;;;;;;;;;5132744;27;20134;-63
2022/08/02 07:14:39;;;;;;;12.43;2.55;;;;;;;;;;5130349;27;20122;-63
2022/08/02 07:17:05;;;;;;;10.68;2.90;;;;;;;;;;5132087;27;20096;-63
2022/08/02 07:19:31;;;;;;;8.43;2.65;;;;;;;;;;5128505;27;20490;-63
2022/08/02 07:21:58;;;;;;;7.38;2.33;;;;;;;;;;5127673;27;20478;-63
2022/08/02 07:24:24;;;;;;;5.70;2.22;;;;;;;;;;5111569;27;20130;-64
2022/08/02 07:26:50;;;;;;;10.55;2.45;;;;;;;;;;5128641;27;20031;-63
2022/08/02 07:29:16;;;;;;;8.05;2.25;;;;;;;;;;5129747;27;20045;-63
2022/08/02 07:31:42;;;;;;;6.40;2.10;;;;;;;;;;5106581;27;20529;-63
2022/08/02 07:34:08;;;;;;;5.10;1.92;;;;;;;;;;5129916;27;20114;-63
2022/08/02 07:36:35;;;;;;;14.35;2.67;;;;;;;;;;5129846;27;20039;-63
2022/08/02 07:39:01;;;;;;;5.75;2.08;;;;;;;;;;5130228;27;20039;-63
2022/08/02 07:41:27;;;;;;;8.80;2.30;;;;;;;;;;5131509;27;20035;-63
2022/08/02 07:43:53;;;;;;;8.45;2.88;;;;;;;;;;5113378;27;20057;-63
2022/08/02 07:46:19;;;;;;;8.80;2.38;;;;;;;;;;5110516;27;20373;-63
2022/08/02 07:48:47;;;;;;;8.57;2.08;;;;;;;;;;5131279;27;20031;-63
2022/08/02 07:51:13;;;;;;;11.65;2.60;;;;;;;;;;5130844;27;20046;-63
2022/08/02 07:53:39;;;;;;;6.88;1.88;;;;;;;;;;5130454;27;20047;-63
2022/08/02 07:56:06;;;;;;;7.88;2.00;;;;;;;;;;5132263;27;20035;-63
2022/08/02 07:58:32;;;;;;;9.60;1.77;;;;;;;;;;5131850;27;20182;-63
2022/08/02 08:00:58;;;;;;;8.07;2.10;;;;;;;;;;5126983;27;20138;-63
2022/08/02 08:03:24;;;;;;;8.45;2.13;;;;;;;;;;5131253;27;20569;-63
2022/08/02 08:05:53;;;;;;;6.00;1.90;;;;;;;;;;5129545;27;20111;-63
2022/08/02 08:08:19;;;;;;;7.57;2.20;;;;;;;;;;5129542;27;20054;-63
2022/08/02 08:10:46;;;;;;;4.88;1.40;;;;;;;;;;5130375;27;20043;-63
2022/08/02 08:13:12;;;;;;;6.00;2.03;;;;;;;;;;5129947;27;20132;-64
2022/08/02 08:15:38;;;;;;;5.68;1.75;;;;;;;;;;5128943;27;20450;-64
2022/08/02 08:18:04;;;;;;;7.90;2.17;;;;;;;;;;5129709;27;20126;-63
2022/08/02 08:20:30;;;;;;;6.30;1.90;;;;;;;;;;5129909;27;20063;-63
2022/08/02 08:22:56;;;;;;;9.25;1.92;;;;;;;;;;5124256;27;20053;-63
2022/08/02 08:25:23;;;;;;;6.82;2.13;;;;;;;;;;5138569;27;20439;-63
2022/08/02 08:27:51;;;;;;;7.03;1.95;;;;;;;;;;5129869;27;20125;-64
2022/08/02 08:30:17;;;;;;;4.05;1.77;;;;;;;;;;5121271;27;20050;-63
2022/08/02 08:32:44;;;;;;;10.57;2.03;;;;;;;;;;5136716;27;20137;-63
2022/08/02 08:35:10;;;;;;;7.90;2.05;;;;;;;;;;5137418;27;20559;-64
2022/08/02 08:37:37;;;;;;;7.65;2.17;;;;;;;;;;5138857;27;20038;-64
2022/08/02 08:40:05;;;;;;;10.35;1.95;;;;;;;;;;5134822;27;21525;-63
2022/08/02 08:42:31;;;;;;;6.68;1.67;;;;;;;;;;5116236;27;20095;-64
2022/08/02 08:44:58;;;;;;;6.25;2.15;;;;;;;;;;5129382;27;20063;-63
2022/08/02 08:47:34;;;;;;;6.78;1.80;;;;;;;;;;5133924;27;20035;-63
2022/08/02 08:50:01;;;;;;;5.78;2.45;;;;;;;;;;5130546;27;20039;-63
2022/08/02 08:52:28;;;;;;;6.82;2.20;;;;;;;;;;5132393;27;20105;-63
2022/08/02 08:54:55;;;;;;;12.10;2.45;;;;;;;;;;5130012;27;20144;-63
2022/08/02 08:57:21;;;;;;;7.80;2.55;;;;;;;;;;5128751;27;20038;-63
2022/08/02 08:59:47;;;;;;;10.02;2.22;;;;;;;;;;5132774;27;20359;-63
2022/08/02 09:02:13;;;;;;;7.70;2.55;;;;;;;;;;5132646;27;20051;-64
2022/08/02 09:04:40;;;;;;;11.40;2.35;;;;;;;;;;5137055;27;20077;-64
2022/08/02 09:07:06;;;;;;;5.82;1.95;;;;;;;;;;5137301;27;20039;-64
2022/08/02 09:09:32;;;;;;;6.55;2.67;;;;;;;;;;5126390;27;20043;-64
2022/08/02 09:12:13;;;;;;;6.40;2.40;;;;;;;;;;5140273;27;20031;-64
2022/08/02 09:14:39;;;;;;;8.07;2.80;;;;;;;;;;5139313;27;20047;-63
2022/08/02 09:17:07;;;;;;;9.75;3.17;;;;;;;;;;5130930;27;20047;-64
2022/08/02 09:19:35;;;;;;;7.28;2.17;;;;;;;;;;5128467;27;20535;-63
2022/08/02 09:22:03;;;;;;;11.35;2.70;;;;;;;;;;5127140;27;20044;-63
2022/08/02 09:24:30;;;;;;;7.25;2.63;;;;;;;;;;5130114;27;20501;-64
2022/08/02 09:26:56;;;;;;;7.85;2.50;;;;;;;;;;5138129;27;20593;-64
2022/08/02 09:29:23;;;;;;;8.13;2.65;;;;;;;;;;5114337;27;20059;-64
2022/08/02 09:31:50;;;;;;;7.90;2.85;;;;;;;;;;5137703;27;20490;-64
2022/08/02 09:34:17;;;;;;;10.45;3.60;;;;;;;;;;5135475;27;20514;-64
2022/08/02 09:36:44;;;;;;;8.18;3.33;;;;;;;;;;5104763;27;20046;-64
2022/08/02 09:39:12;;;;;;;12.18;3.30;;;;;;;;;;5130218;27;20059;-64
2022/08/02 09:41:40;;;;;;;9.75;3.53;;;;;;;;;;5110669;28;20078;-64
2022/08/02 09:44:07;;;;;;;9.93;3.60;;;;;;;;;;5129335;27;20046;-64
2022/08/02 09:46:36;;;;;;;10.95;3.80;;;;;;;;;;5127559;27;20039;-64
2022/08/02 09:49:04;;;;;;;7.75;3.50;;;;;;;;;;5129910;27;20134;-64
2022/08/02 09:51:33;;;;;;;7.90;3.95;;;;;;;;;;5129196;27;20050;-64
2022/08/02 09:54:01;;;;;;;11.25;4.28;;;;;;;;;;5128831;27;20051;-64
2022/08/02 09:56:28;;;;;;;8.25;4.05;;;;;;;;;;5130220;27;20035;-64
2022/08/02 09:58:55;;;;;;;6.97;4.00;;;;;;;;;;5132793;27;20035;-64
2022/08/02 10:01:31;;;;;;;12.05;4.90;;;;;;;;;;5132887;27;20031;-64
2022/08/02 10:03:59;;;;;;;11.48;5.32;;;;;;;;;;5139980;27;20035;-64
2022/08/02 10:06:25;;;;;;;11.27;5.30;;;;;;;;;;5136211;27;20039;-64
2022/08/02 10:08:52;;;;;;;9.20;5.43;;;;;;;;;;5138222;27;20385;-64
2022/08/02 10:11:19;;;;;;;7.95;5.15;;;;;;;;;;5138626;27;20047;-64
2022/08/02 10:13:46;;;;;;;10.77;4.40;;;;;;;;;;5139499;27;20091;-64
2022/08/02 10:16:13;;;;;;;11.27;4.35;;;;;;;;;;5139741;27;20066;-64
2022/08/02 10:18:39;;;;;;;7.03;4.25;;;;;;;;;;5120144;27;20122;-64
2022/08/02 10:21:06;;;;;;;7.18;4.03;;;;;;;;;;5112083;27;20457;-64
2022/08/02 10:23:34;;;;;;;8.65;5.00;;;;;;;;;;5133471;27;20039;-64
2022/08/02 10:26:00;;;;;;;17.60;5.32;;;;;;;;;;5133826;27;20402;-64
2022/08/02 10:28:30;;;;;;;10.55;4.65;;;;;;;;;;5140087;27;20042;-64
2022/08/02 10:30:57;;;;;;;6.22;2.63;;;;;;;;;;5118121;27;20046;-64
2022/08/02 10:33:25;;;;;;;6.40;2.75;;;;;;;;;;5143506;27;20062;-64
2022/08/02 10:35:53;;;;;;;9.13;3.65;;;;;;;;;;5139370;27;20039;-64
2022/08/02 10:38:19;;;;;;;6.35;4.20;;;;;;;;;;5115365;27;20058;-64
2022/08/02 10:40:47;;;;;;;11.60;5.78;;;;;;;;;;5136701;27;20475;-64
2022/08/02 10:43:33;;;;;;;13.85;7.25;;;;;;;;;;5136925;27;20071;-64
2022/08/02 10:46:18;;;;;;;12.68;7.57;;;;;;;;;;5138628;27;20035;-64
2022/08/02 10:49:19;;;;;;;11.18;7.63;;;;;;;;;;5134638;27;20134;-64
2022/08/02 10:51:51;;;;;;;13.57;8.52;;;;;;;;;;5138193;27;20043;-64
2022/08/02 10:54:19;;;;;;;13.02;8.18;;;;;;;;;;5119862;27;20046;-64
2022/08/02 10:56:46;;;;;;;15.35;10.93;;;;;;;;;;5143619;27;20034;-64
2022/08/02 10:59:25;;;;;;;14.55;9.63;;;;;;;;;;5141407;27;20074;-64
2022/08/02 11:01:52;;;;;;;14.48;10.35;;;;;;;;;;5131805;27;20046;-64
2022/08/02 11:04:18;;;;;;;17.23;11.20;;;;;;;;;;5130290;27;20559;-64
2022/08/02 11:07:03;;;;;;;17.55;11.73;;;;;;;;;;5136826;27;20062;-64
2022/08/02 11:09:31;;;;;;;16.08;10.77;;;;;;;;;;5137316;27;20039;-64
2022/08/02 11:12:03;;;;;;;16.98;11.75;;;;;;;;;;5144543;27;20059;-64
2022/08/02 11:14:30;;;;;;;18.20;12.35;;;;;;;;;;5138524;27;20237;-64
2022/08/02 11:16:56;;;;;;;16.27;11.85;;;;;;;;;;5139385;27;20451;-64
2022/08/02 11:19:23;;;;;;;15.38;12.63;;;;;;;;;;5134078;27;20045;-64
2022/08/02 11:22:00;;;;;;;22.98;14.13;;;;;;;;;;5130051;27;20039;-64
2022/08/02 11:24:29;;;;;;;18.20;12.57;;;;;;;;;;5125876;27;20042;-64
2022/08/02 11:26:56;;;;;;;21.15;13.98;;;;;;;;;;5129126;27;20071;-64
2022/08/02 11:29:31;;;;;;;17.02;12.55;;;;;;;;;;5128816;27;20134;-64
2022/08/02 11:31:57;;;;;;;16.25;12.38;;;;;;;;;;5142778;27;20047;-64
2022/08/02 11:34:24;;;;;;;16.30;14.07;;;;;;;;;;5139665;27;20046;-64
2022/08/02 11:36:52;;;;;;;18.55;13.20;;;;;;;;;;5132281;27;20031;-64
2022/08/02 11:39:21;;;;;;;18.63;12.45;;;;;;;;;;5127598;27;20038;-63
2022/08/02 11:41:49;;;;;;;20.73;13.13;;;;;;;;;;5136730;27;20406;-64
2022/08/02 11:44:15;;;;;;;22.63;13.77;;;;;;;;;;5115815;27;20119;-63
2022/08/02 11:46:41;;;;;;;18.65;13.35;;;;;;;;;;5138032;27;20035;-64
2022/08/02 11:49:12;;;;;;;22.67;13.57;;;;;;;;;;5117803;27;20559;-64
2022/08/02 11:51:38;;;;;;;15.20;12.25;;;;;;;;;;5140509;27;20074;-63
2022/08/02 11:54:04;;;;;;;15.77;13.18;;;;;;;;;;5142347;27;20107;-64
2022/08/02 11:56:31;;;;;;;17.45;13.48;;;;;;;;;;5121709;27;20039;-64
2022/08/02 11:59:01;;;;;;;21.55;14.48;;;;;;;;;;5137532;27;20074;-64
2022/08/02 12:01:28;;;;;;;20.02;14.40;;;;;;;;;;5139055;27;20045;-64
2022/08/02 12:03:59;;;;;;;19.90;14.57;;;;;;;;;;5133162;27;20616;-64
2022/08/02 12:06:27;;;;;;;19.00;14.77;;;;;;;;;;5127279;27;20169;-64
2022/08/02 12:09:09;;;;;;;17.58;14.35;;;;;;;;;;5109875;27;20111;-64
2022/08/02 12:11:35;;;;;;;20.63;14.95;;;;;;;;;;5130698;27;20043;-63
2022/08/02 12:14:02;;;;;;;19.48;14.75;;;;;;;;;;5111827;27;20514;-64
2022/08/02 12:19:22;;;;;;;23.38;14.85;;;;;;;;;;5126457;27;20066;-64
2022/08/02 12:22:06;;;;;;;25.38;15.73;;;;;;;;;;5126933;27;20463;-64
2022/08/02 12:24:32;;;;;;;21.30;16.27;;;;;;;;;;5132488;27;20118;-63
2022/08/02 12:26:58;;;;;;;19.80;16.42;;;;;;;;;;5135768;27;20123;-63
2022/08/02 12:29:29;;;;;;;21.65;15.23;;;;;;;;;;5132453;27;20095;-64
2022/08/02 12:31:56;;;;;;;21.35;15.35;;;;;;;;;;5135521;27;20084;-64
2022/08/02 12:34:23;;;;;;;20.85;15.73;;;;;;;;;;5133743;27;20066;-63
2022/08/02 12:36:58;;;;;;;20.08;14.32;;;;;;;;;;5136886;27;20404;-63
2022/08/02 12:39:35;;;;;;;21.85;15.77;;;;;;;;;;5138241;27;20061;-64
2022/08/02 12:42:02;;;;;;;21.50;16.13;;;;;;;;;;5138745;27;20049;-63
2022/08/02 12:44:28;;;;;;;22.52;15.82;;;;;;;;;;5138461;27;20054;-63
2022/08/02 12:46:58;;;;;;;21.33;15.95;;;;;;;;;;5134395;27;20375;-64
2022/08/02 12:49:24;;;;;;;26.92;17.40;;;;;;;;;;5133529;27;20110;-63
2022/08/02 12:51:50;;;;;;;22.33;15.68;;;;;;;;;;5132128;27;20038;-64
2022/08/02 12:54:19;;;;;;;20.85;16.02;;;;;;;;;;5130312;27;20050;-64
2022/08/02 12:56:46;;;;;;;25.17;16.73;;;;;;;;;;5132543;27;20039;-64
2022/08/02 12:59:13;;;;;;;26.27;16.95;;;;;;;;;;5111636;27;20470;-64
2022/08/02 13:01:39;;;;;;;23.95;16.30;;;;;;;;;;5133002;27;20046;-63
2022/08/02 13:04:05;;;;;;;25.73;17.08;;;;;;;;;;5135187;27;20037;-64
2022/08/02 13:06:31;;;;;;;23.02;17.65;;;;;;;;;;5135094;27;20035;-63
2022/08/02 13:08:58;;;;;;;23.75;17.25;;;;;;;;;;5132397;27;20053;-63
2022/08/02 13:11:25;;;;;;;26.00;17.73;;;;;;;;;;5131941;27;20042;-63
2022/08/02 13:13:51;;;;;;;23.73;17.52;;;;;;;;;;5113946;27;20202;-63
2022/08/02 13:16:17;;;;;;;29.75;17.50;;;;;;;;;;5131365;27;20043;-64
2022/08/02 13:18:45;;;;;;;22.27;17.77;;;;;;;;;;5131253;27;20474;-64
2022/08/02 13:21:11;;;;;;;25.05;17.77;;;;;;;;;;5127698;27;20053;-64
2022/08/02 13:23:37;;;;;;;20.67;16.58;;;;;;;;;;5128627;27;20039;-64
2022/08/02 13:26:04;;;;;;;22.85;18.35;;;;;;;;;;5129086;27;20066;-64
2022/08/02 13:28:31;;;;;;;21.85;17.73;;;;;;;;;;5134508;27;20043;-64
2022/08/02 13:30:57;;;;;;;24.92;18.20;;;;;;;;;;5133413;27;20766;-64
2022/08/02 13:33:23;;;;;;;26.67;18.75;;;;;;;;;;5139956;27;20398;-64
2022/08/02 13:35:49;;;;;;;23.98;17.10;;;;;;;;;;5136376;27;20130;-64
2022/08/02 13:38:16;;;;;;;20.25;15.90;;;;;;;;;;5139404;27;20609;-64
2022/08/02 13:43:27;;;;;;;21.95;16.50;;;;;;;;;;5138018;27;20046;-64
2022/08/02 13:45:53;;;;;;;22.10;16.02;;;;;;;;;;5140289;27;20038;-63
2022/08/02 13:48:19;;;;;;;20.70;15.93;;;;;;;;;;5139204;27;20091;-64
2022/08/02 13:50:46;;;;;;;17.88;12.35;;;;;;;;;;5139719;27;20061;-64
2022/08/02 13:53:12;;;;;;;15.13;11.48;;;;;;;;;;5137155;27;20050;-64
2022/08/02 13:55:38;;;;;;;14.93;10.15;;;;;;;;;;5122392;27;20060;-64
2022/08/02 13:58:04;;;;;;;14.07;10.98;;;;;;;;;;5134847;27;20081;-64
2022/08/02 14:00:31;;;;;;;13.35;10.15;;;;;;;;;;5140638;27;20043;-64
2022/08/02 14:02:57;;;;;;;13.95;10.65;;;;;;;;;;5127545;27;20043;-64
2022/08/02 14:05:28;;;;;;;15.48;12.35;;;;;;;;;;5134313;27;20054;-64
2022/08/02 14:07:57;;;;;;;17.95;11.02;;;;;;;;;;5134458;27;20043;-64
2022/08/02 14:10:25;;;;;;;14.75;11.38;;;;;;;;;;5136354;27;20035;-64
2022/08/02 14:12:51;;;;;;;18.95;12.07;;;;;;;;;;5138864;27;20047;-63
2022/08/02 14:15:18;;;;;;;15.60;11.00;;;;;;;;;;5137190;27;20095;-64
2022/08/02 14:17:44;;;;;;;17.55;10.80;;;;;;;;;;5134721;27;20413;-64
2022/08/02 14:20:10;;;;;;;21.08;10.55;;;;;;;;;;5131206;27;20045;-64
2022/08/02 14:22:37;;;;;;;19.98;9.45;;;;;;;;;;5128996;27;20043;-64
2022/08/02 14:25:03;;;;;;;12.50;8.63;;;;;;;;;;5136181;27;20497;-64
2022/08/02 14:27:30;;;;;;;12.52;8.27;;;;;;;;;;5139029;27;20039;-64
2022/08/02 14:29:57;;;;;;;10.35;6.28;;;;;;;;;;5147705;27;20153;-64
2022/08/02 14:32:23;;;;;;;8.07;4.78;;;;;;;;;;5131445;27;20053;-64
2022/08/02 14:34:49;;;;;;;12.73;5.88;;;;;;;;;;5128477;27;20042;-64
2022/08/02 14:37:15;;;;;;;10.52;5.05;;;;;;;;;;5129466;27;20397;-64
2022/08/02 14:39:41;;;;;;;9.45;4.97;;;;;;;;;;5129708;27;20043;-64